createdAt,value
2022-08-20T00:02:16.783Z,48.29
2022-08-20T00:04:45.264Z,48.45
2022-08-20T00:07:14.710Z,48.51
2022-08-20T00:09:44.317Z,48.70
2022-08-20T00:12:16.741Z,48.94
2022-08-20T00:14:44.980Z,49.08
2022-08-20T00:17:13.441Z,49.27
2022-08-20T00:19:41.785Z,49.43
2022-08-20T00:22:10.170Z,49.71
2022-08-20T00:24:38.569Z,50.11
2022-08-20T00:27:06.829Z,50.29
2022-08-20T00:29:35.104Z,50.54
2022-08-20T00:32:03.547Z,50.70
2022-08-20T00:34:31.768Z,50.88
2022-08-20T00:37:00.110Z,51.09
2022-08-20T00:39:28.989Z,51.28
2022-08-20T00:41:57.282Z,51.53
2022-08-20T00:44:25.848Z,51.76
2022-08-20T00:46:54.744Z,52.01
2022-08-20T00:49:28.147Z,52.40
2022-08-20T00:52:05.969Z,52.53
2022-08-20T00:54:41.906Z,52.85
2022-08-20T00:57:23.149Z,52.97
2022-08-20T00:59:52.992Z,53.28
2022-08-20T01:02:23.463Z,53.40
2022-08-20T01:04:57.895Z,53.73
2022-08-20T01:07:37.525Z,54.15
2022-08-20T01:10:08.039Z,54.44
2022-08-20T01:12:40.211Z,54.84
2022-08-20T01:15:13.569Z,55.26
2022-08-20T01:17:46.396Z,55.33
2022-08-20T01:20:23.084Z,55.60
2022-08-20T01:23:28.559Z,55.62
2022-08-20T01:26:03.968Z,55.65
2022-08-20T01:28:36.216Z,55.53
2022-08-20T01:31:07.107Z,55.68
2022-08-20T01:33:36.045Z,55.76
2022-08-20T01:36:06.183Z,55.57
2022-08-20T01:38:35.519Z,55.98
2022-08-20T01:41:24.606Z,56.05
2022-08-20T01:43:58.813Z,56.27
2022-08-20T01:46:33.000Z,56.74
2022-08-20T01:49:21.063Z,57.01
2022-08-20T01:51:54.195Z,57.39
2022-08-20T01:54:23.420Z,57.92
2022-08-20T01:56:57.519Z,58.34
2022-08-20T01:59:25.867Z,58.82
2022-08-20T02:01:54.592Z,59.12
2022-08-20T02:04:23.849Z,59.46
2022-08-20T02:06:57.742Z,59.88
2022-08-20T02:09:33.511Z,60.33
2022-08-20T02:12:03.470Z,60.89
2022-08-20T02:14:32.551Z,61.22
2022-08-20T02:17:01.402Z,61.55
2022-08-20T02:19:34.479Z,62.03
2022-08-20T02:22:11.443Z,62.35
2022-08-20T02:24:39.636Z,62.64
2022-08-20T02:27:07.880Z,63.24
2022-08-20T02:29:36.127Z,63.38
2022-08-20T02:32:25.066Z,63.93
2022-08-20T02:34:55.046Z,64.06
2022-08-20T02:37:23.343Z,64.12
2022-08-20T02:39:51.690Z,64.65
2022-08-20T02:42:19.990Z,64.76
2022-08-20T02:44:48.231Z,65.02
2022-08-20T02:47:17.351Z,65.09
2022-08-20T02:49:45.678Z,65.50
2022-08-20T02:52:13.898Z,65.91
2022-08-20T02:54:42.138Z,66.06
2022-08-20T02:57:15.466Z,66.17
2022-08-20T02:59:45.384Z,66.70
2022-08-20T03:02:14.533Z,66.92
2022-08-20T03:04:43.130Z,67.13
2022-08-20T03:07:12.221Z,67.38
2022-08-20T03:09:41.342Z,67.81
2022-08-20T03:12:10.010Z,67.89
2022-08-20T03:14:38.469Z,67.96
2022-08-20T03:17:06.861Z,68.06
2022-08-20T03:19:35.087Z,68.37
2022-08-20T03:22:03.466Z,68.26
2022-08-20T03:24:31.684Z,68.36
2022-08-20T03:26:59.888Z,68.43
2022-08-20T03:29:28.218Z,68.47
2022-08-20T03:31:56.402Z,68.45
2022-08-20T03:34:24.665Z,68.42
2022-08-20T03:36:52.885Z,68.59
2022-08-20T03:39:21.177Z,68.57
2022-08-20T03:41:49.381Z,68.70
2022-08-20T03:44:18.729Z,68.78
2022-08-20T03:46:47.109Z,68.80
2022-08-20T03:49:15.313Z,68.94
2022-08-20T03:51:57.296Z,69.05
2022-08-20T03:54:27.449Z,68.97
2022-08-20T03:57:00.969Z,69.09
2022-08-20T03:59:33.356Z,69.22
2022-08-20T04:02:01.589Z,69.34
2022-08-20T04:04:29.892Z,69.40
2022-08-20T04:06:58.273Z,69.51
2022-08-20T04:09:26.493Z,69.58
2022-08-20T04:12:00.376Z,69.52
2022-08-20T04:14:29.285Z,69.73
2022-08-20T04:16:58.485Z,69.96
2022-08-20T04:19:29.139Z,69.94
2022-08-20T04:21:59.697Z,70.00
2022-08-20T04:24:32.235Z,70.01
2022-08-20T04:27:03.012Z,70.22
2022-08-20T04:29:35.387Z,70.35
2022-08-20T04:32:06.363Z,70.38
2022-08-20T04:34:35.246Z,70.52
2022-08-20T04:37:04.445Z,70.49
2022-08-20T04:39:33.350Z,70.63
2022-08-20T04:42:01.585Z,70.60
2022-08-20T04:44:29.845Z,70.76
2022-08-20T04:46:58.796Z,70.71
2022-08-20T04:49:28.097Z,70.66
2022-08-20T04:51:56.812Z,70.57
2022-08-20T04:54:25.242Z,70.70
2022-08-20T04:56:53.585Z,70.79
2022-08-20T04:59:21.881Z,70.77
2022-08-20T05:01:50.056Z,70.78
2022-08-20T05:04:18.322Z,70.49
2022-08-20T05:06:47.326Z,70.34
2022-08-20T05:09:15.588Z,70.21
2022-08-20T05:11:45.140Z,70.11
2022-08-20T05:14:15.246Z,70.01
2022-08-20T05:16:43.461Z,70.14
2022-08-20T05:19:13.292Z,69.85
2022-08-20T05:21:41.787Z,69.65
2022-08-20T05:24:11.533Z,69.55
2022-08-20T05:26:39.961Z,69.35
2022-08-20T05:29:08.227Z,69.06
2022-08-20T05:31:36.492Z,68.96
2022-08-20T05:34:10.810Z,68.73
2022-08-20T05:36:49.202Z,68.69
2022-08-20T05:39:20.502Z,68.32
2022-08-20T05:41:52.444Z,68.06
2022-08-20T05:44:21.001Z,68.10
2022-08-20T05:46:49.195Z,67.94
2022-08-20T05:49:20.431Z,67.90
2022-08-20T05:51:51.533Z,67.69
2022-08-20T05:54:20.029Z,67.71
2022-08-20T05:56:48.414Z,67.78
2022-08-20T05:59:19.911Z,67.72
2022-08-20T06:01:50.528Z,67.68
2022-08-20T06:04:26.824Z,67.60
2022-08-20T06:07:04.313Z,67.84
2022-08-20T06:09:33.081Z,68.03
2022-08-20T06:12:04.648Z,67.96
2022-08-20T06:14:33.124Z,68.02
2022-08-20T06:17:06.892Z,68.15
2022-08-20T06:19:36.440Z,68.21
2022-08-20T06:22:18.319Z,67.98
2022-08-20T06:24:51.350Z,68.22
2022-08-20T06:27:20.257Z,67.85
2022-08-20T06:29:49.329Z,67.69
2022-08-20T06:32:19.981Z,67.61
2022-08-20T06:35:02.344Z,67.46
2022-08-20T06:37:36.594Z,67.22
2022-08-20T06:40:07.195Z,66.97
2022-08-20T06:42:35.971Z,66.69
2022-08-20T06:45:07.440Z,66.66
2022-08-20T06:47:39.471Z,66.39
2022-08-20T06:50:12.089Z,66.38
2022-08-20T06:52:51.934Z,66.25
2022-08-20T06:55:30.732Z,66.08
2022-08-20T06:58:01.815Z,65.93
2022-08-20T07:00:32.771Z,65.65
2022-08-20T07:03:02.379Z,65.67
2022-08-20T07:05:33.272Z,65.52
2022-08-20T07:08:02.151Z,65.57
2022-08-20T07:10:31.312Z,65.66
2022-08-20T07:13:00.471Z,65.41
2022-08-20T07:15:29.582Z,65.42
2022-08-20T07:18:01.664Z,65.36
2022-08-20T07:20:32.227Z,65.19
2022-08-20T07:23:01.157Z,65.01
2022-08-20T07:25:33.751Z,64.89
2022-08-20T07:28:04.950Z,64.73
2022-08-20T07:30:56.654Z,64.64
2022-08-20T07:33:30.655Z,64.73
2022-08-20T07:36:00.796Z,64.35
2022-08-20T07:38:31.170Z,64.08
2022-08-20T07:41:06.554Z,63.80
2022-08-20T07:43:35.093Z,63.72
2022-08-20T07:46:09.156Z,63.24
2022-08-20T07:48:40.139Z,63.06
2022-08-20T07:51:10.956Z,62.78
2022-08-20T07:53:40.783Z,62.40
2022-08-20T07:56:12.247Z,62.22
2022-08-20T07:58:50.489Z,62.05
2022-08-20T08:01:28.766Z,61.42
2022-08-20T08:03:59.179Z,61.46
2022-08-20T08:06:30.293Z,61.09
2022-08-20T08:09:04.843Z,60.76
2022-08-20T08:11:34.442Z,60.29
2022-08-20T08:14:05.474Z,59.71
2022-08-20T08:16:35.513Z,59.37
2022-08-20T08:19:06.770Z,59.17
2022-08-20T08:21:35.323Z,58.67
2022-08-20T08:24:03.899Z,58.49
2022-08-20T08:26:32.072Z,58.21
2022-08-20T08:29:00.335Z,57.38
2022-08-20T08:31:29.004Z,57.41
2022-08-20T08:33:57.227Z,57.35
2022-08-20T08:36:26.967Z,57.28
2022-08-20T08:38:56.726Z,56.74
2022-08-20T08:41:37.197Z,56.52
2022-08-20T08:44:21.194Z,56.17
2022-08-20T08:46:53.470Z,56.01
2022-08-20T08:49:37.279Z,55.37
2022-08-20T08:52:30.154Z,54.71
2022-08-20T08:55:03.763Z,53.94
2022-08-20T08:57:32.887Z,53.52
2022-08-20T09:00:14.581Z,53.32
2022-08-20T09:02:57.537Z,53.17
2022-08-20T09:05:41.119Z,52.99
2022-08-20T09:08:16.844Z,52.53
2022-08-20T09:10:46.332Z,52.01
2022-08-20T09:13:14.582Z,51.37
2022-08-20T09:15:43.025Z,50.47
2022-08-20T09:18:11.262Z,50.38
2022-08-20T09:20:39.429Z,49.52
2022-08-20T09:23:07.747Z,48.98
2022-08-20T09:25:37.147Z,49.18
2022-08-20T09:28:05.886Z,48.27
2022-08-20T09:30:34.088Z,48.10
2022-08-20T09:33:04.421Z,47.34
2022-08-20T09:35:32.826Z,46.04
2022-08-20T09:38:02.126Z,45.98
2022-08-20T09:40:31.447Z,45.36
2022-08-20T09:42:59.706Z,44.79
2022-08-20T09:45:28.019Z,44.06
2022-08-20T09:47:56.922Z,43.79
2022-08-20T09:50:28.104Z,43.75
2022-08-20T09:52:59.622Z,43.88
2022-08-20T09:55:47.061Z,44.60
2022-08-20T09:58:39.526Z,45.27
2022-08-20T10:01:17.161Z,46.26
2022-08-20T10:03:49.966Z,47.07
2022-08-20T10:06:20.594Z,47.98
2022-08-20T10:08:50.393Z,48.42
2022-08-20T10:11:18.941Z,49.27
2022-08-20T10:13:47.166Z,49.85
2022-08-20T10:16:15.446Z,50.02
2022-08-20T10:18:43.649Z,50.72
2022-08-20T10:21:12.782Z,51.42
2022-08-20T10:23:41.555Z,51.96
2022-08-20T10:26:11.485Z,51.85
2022-08-20T10:28:40.007Z,52.12
2022-08-20T10:31:13.182Z,51.84
2022-08-20T10:33:42.583Z,51.77
2022-08-20T10:36:15.543Z,51.61
2022-08-20T10:38:44.898Z,51.84
2022-08-20T10:41:13.178Z,52.02
2022-08-20T10:43:41.425Z,52.10
2022-08-20T10:46:09.891Z,52.09
2022-08-20T10:48:39.139Z,52.13
2022-08-20T10:51:07.340Z,52.27
2022-08-20T10:53:36.239Z,52.21
2022-08-20T10:56:04.715Z,52.27
2022-08-20T10:58:39.288Z,52.15
2022-08-20T11:01:08.889Z,52.00
2022-08-20T11:03:37.189Z,52.27
2022-08-20T11:06:05.731Z,52.24
2022-08-20T11:08:35.906Z,52.23
2022-08-20T11:11:06.129Z,51.99
2022-08-20T11:13:35.908Z,52.24
2022-08-20T11:16:04.796Z,52.35
2022-08-20T11:18:33.446Z,52.45
2022-08-20T11:21:02.237Z,52.65
2022-08-20T11:23:30.669Z,52.83
2022-08-20T11:25:59.469Z,53.02
2022-08-20T11:28:31.581Z,52.74
2022-08-20T11:31:01.929Z,52.58
2022-08-20T11:33:30.115Z,52.79
2022-08-20T11:35:58.449Z,52.48
2022-08-20T11:38:27.118Z,52.75
2022-08-20T11:40:55.362Z,52.71
2022-08-20T11:43:23.972Z,52.74
2022-08-20T11:45:56.325Z,52.90
2022-08-20T11:48:24.553Z,52.96
2022-08-20T11:50:52.914Z,52.98
2022-08-20T11:53:22.235Z,52.54
2022-08-20T11:55:50.762Z,52.74
2022-08-20T11:58:19.080Z,52.77
2022-08-20T12:00:47.338Z,52.55
2022-08-20T12:03:16.260Z,52.62
2022-08-20T12:05:46.361Z,52.64
2022-08-20T12:08:27.598Z,52.81
2022-08-20T12:10:59.540Z,53.39
2022-08-20T12:13:48.447Z,53.34
2022-08-20T12:16:19.185Z,53.35
2022-08-20T12:18:48.255Z,53.33
2022-08-20T12:21:16.948Z,53.43
2022-08-20T12:23:45.609Z,53.38
2022-08-20T12:26:14.393Z,53.11
2022-08-20T12:28:43.186Z,52.98
2022-08-20T12:31:11.497Z,52.89
2022-08-20T12:33:39.739Z,52.52
2022-08-20T12:36:08.211Z,52.19
2022-08-20T12:38:36.547Z,52.23
2022-08-20T12:41:04.765Z,52.20
2022-08-20T12:43:32.964Z,52.22
2022-08-20T12:46:01.232Z,51.87
2022-08-20T12:48:29.525Z,51.29
2022-08-20T12:50:57.836Z,50.95
2022-08-20T12:53:26.165Z,50.64
2022-08-20T12:55:54.385Z,50.20
2022-08-20T12:58:22.620Z,49.65
2022-08-20T13:00:51.445Z,48.75
2022-08-20T13:03:21.034Z,47.65
2022-08-20T13:05:50.184Z,46.48
2022-08-20T13:08:19.631Z,45.63
2022-08-20T13:10:48.432Z,45.18
2022-08-20T13:13:20.393Z,44.45
2022-08-20T13:15:51.256Z,43.32
2022-08-20T13:18:20.680Z,42.70
2022-08-20T13:20:49.521Z,42.25
2022-08-20T13:23:17.944Z,41.75
2022-08-20T13:25:46.177Z,41.78
2022-08-20T13:28:14.457Z,41.72
2022-08-20T13:30:42.764Z,42.14
2022-08-20T13:33:11.040Z,41.79
2022-08-20T13:35:39.232Z,41.89
2022-08-20T13:38:07.546Z,41.38
2022-08-20T13:40:35.985Z,41.20
2022-08-20T13:43:07.108Z,41.54
2022-08-20T13:45:39.937Z,41.53
2022-08-20T13:48:09.995Z,41.36
2022-08-20T13:50:47.268Z,41.15
2022-08-20T13:53:16.703Z,40.71
2022-08-20T13:55:45.848Z,40.38
2022-08-20T13:58:14.115Z,40.67
2022-08-20T14:00:42.540Z,40.75
2022-08-20T14:03:11.436Z,41.00
2022-08-20T14:05:40.087Z,40.96
2022-08-20T14:08:20.857Z,41.25
2022-08-20T14:10:51.564Z,41.84
2022-08-20T14:13:23.233Z,42.28
2022-08-20T14:15:52.121Z,42.68
2022-08-20T14:18:21.052Z,42.66
2022-08-20T14:20:49.668Z,42.69
2022-08-20T14:23:17.904Z,42.96
2022-08-20T14:25:47.973Z,43.26
2022-08-20T14:28:22.108Z,43.15
2022-08-20T14:30:53.235Z,43.51
2022-08-20T14:33:23.863Z,43.66
2022-08-20T14:35:53.199Z,43.68
2022-08-20T14:38:21.744Z,44.03
2022-08-20T14:40:50.765Z,44.04
2022-08-20T14:43:19.599Z,44.11
2022-08-20T14:45:48.025Z,44.11
2022-08-20T14:48:16.274Z,44.55
2022-08-20T14:50:44.557Z,44.68
2022-08-20T14:53:12.812Z,44.89
2022-08-20T14:55:41.005Z,45.00
2022-08-20T14:58:11.316Z,45.37
2022-08-20T15:00:39.983Z,45.61
2022-08-20T15:03:08.352Z,45.90
2022-08-20T15:05:39.479Z,46.18
2022-08-20T15:08:10.872Z,46.44
2022-08-20T15:10:39.980Z,46.52
2022-08-20T15:13:14.861Z,46.87
2022-08-20T15:15:43.789Z,47.16
2022-08-20T15:18:14.315Z,47.73
2022-08-20T15:20:42.536Z,48.28
2022-08-20T15:23:10.772Z,48.61
2022-08-20T15:25:38.972Z,48.78
2022-08-20T15:28:10.564Z,48.92
2022-08-20T15:30:41.530Z,49.35
2022-08-20T15:33:11.155Z,49.46
2022-08-20T15:35:39.681Z,49.72
2022-08-20T15:38:08.076Z,49.83
2022-08-20T15:40:36.866Z,49.76
2022-08-20T15:43:05.712Z,49.94
2022-08-20T15:45:35.682Z,50.17
2022-08-20T15:48:12.684Z,50.37
2022-08-20T15:51:08.839Z,50.51
2022-08-20T15:53:54.528Z,50.65
2022-08-20T15:56:50.792Z,50.65
2022-08-20T15:59:25.864Z,50.80
2022-08-20T16:02:12.968Z,50.70
2022-08-20T16:05:02.323Z,50.84
2022-08-20T16:07:33.144Z,51.18
2022-08-20T16:10:44.684Z,51.42
2022-08-20T16:13:39.719Z,51.95
2022-08-20T16:16:17.418Z,52.11
2022-08-20T16:18:50.318Z,52.17
2022-08-20T16:21:34.959Z,52.65
2022-08-20T16:24:05.935Z,52.78
2022-08-20T16:27:22.261Z,53.09
2022-08-20T16:29:53.297Z,53.50
2022-08-20T16:32:30.408Z,53.78
2022-08-20T16:35:29.663Z,54.31
2022-08-20T16:38:07.036Z,54.62
2022-08-20T16:40:49.480Z,55.04
2022-08-20T16:43:32.023Z,55.40
2022-08-20T16:46:15.659Z,55.54
2022-08-20T16:49:05.800Z,55.83
2022-08-20T16:51:37.175Z,56.15
2022-08-20T16:54:06.074Z,56.35
2022-08-20T16:56:44.199Z,56.44
2022-08-20T16:59:26.599Z,56.74
2022-08-20T17:02:10.254Z,56.96
2022-08-20T17:05:00.048Z,57.23
2022-08-20T17:07:43.263Z,57.45
2022-08-20T17:10:35.475Z,57.53
2022-08-20T17:13:19.758Z,57.72
2022-08-20T17:16:05.186Z,57.79
2022-08-20T17:18:37.126Z,57.85
2022-08-20T17:21:15.839Z,57.98
2022-08-20T17:23:56.325Z,58.05
2022-08-20T17:26:40.846Z,58.13
2022-08-20T17:29:13.630Z,58.24
2022-08-20T17:31:45.559Z,58.43
2022-08-20T17:34:17.870Z,58.54
2022-08-20T17:36:57.146Z,58.70
2022-08-20T17:39:29.149Z,58.93
2022-08-20T17:42:10.736Z,59.20
2022-08-20T17:44:43.569Z,59.21
2022-08-20T17:47:16.524Z,59.38
2022-08-20T17:50:02.525Z,59.67
2022-08-20T17:52:39.183Z,59.89
2022-08-20T17:55:08.818Z,60.29
2022-08-20T17:57:40.293Z,60.57
2022-08-20T18:00:14.986Z,60.73
2022-08-20T18:02:44.239Z,61.00
2022-08-20T18:05:19.958Z,61.11
2022-08-20T18:08:15.007Z,61.30
2022-08-20T18:10:51.409Z,61.44
2022-08-20T18:13:48.020Z,61.67
2022-08-20T18:16:29.999Z,61.83
2022-08-20T18:19:15.207Z,61.74
2022-08-20T18:22:20.778Z,61.71
2022-08-20T18:25:24.364Z,61.84
2022-08-20T18:27:57.401Z,61.84
2022-08-20T18:30:26.973Z,61.90
2022-08-20T18:33:07.626Z,61.88
2022-08-20T18:35:45.705Z,62.04
2022-08-20T18:38:23.504Z,61.98
2022-08-20T18:40:55.038Z,62.16
2022-08-20T18:43:30.700Z,62.43
2022-08-20T18:46:22.667Z,62.54
2022-08-20T18:49:01.705Z,62.59
2022-08-20T18:51:50.851Z,62.62
2022-08-20T18:54:32.978Z,62.57
2022-08-20T18:57:04.078Z,62.53
2022-08-20T18:59:39.169Z,62.45
2022-08-20T19:02:32.489Z,62.50
2022-08-20T19:05:12.570Z,62.63
2022-08-20T19:07:48.633Z,62.78
2022-08-20T19:10:44.109Z,62.87
2022-08-20T19:13:30.853Z,62.90
2022-08-20T19:16:28.941Z,63.06
2022-08-20T19:18:57.185Z,63.44
2022-08-20T19:21:30.489Z,63.45
2022-08-20T19:24:03.440Z,63.49
2022-08-20T19:26:39.619Z,63.64
2022-08-20T19:29:13.091Z,63.52
2022-08-20T19:31:41.998Z,63.82
2022-08-20T19:34:20.423Z,63.79
2022-08-20T19:37:02.576Z,63.89
2022-08-20T19:39:49.152Z,63.85
2022-08-20T19:42:24.221Z,63.97
2022-08-20T19:44:55.421Z,64.08
2022-08-20T19:47:31.921Z,63.95
2022-08-20T19:50:17.590Z,63.78
2022-08-20T19:52:45.738Z,63.80
2022-08-20T19:55:20.103Z,63.84
2022-08-20T19:57:54.103Z,63.64
2022-08-20T20:00:24.262Z,63.60
2022-08-20T20:02:53.022Z,63.72
2022-08-20T20:05:22.754Z,63.85
2022-08-20T20:07:57.390Z,63.78
2022-08-20T20:10:35.209Z,63.58
2022-08-20T20:13:14.407Z,63.65
2022-08-20T20:15:43.006Z,63.66
2022-08-20T20:18:12.242Z,63.72
2022-08-20T20:21:29.162Z,63.74
2022-08-20T20:23:59.229Z,64.12
2022-08-20T20:26:35.543Z,64.09
2022-08-20T20:29:14.177Z,64.12
2022-08-20T20:31:51.363Z,64.43
2022-08-20T20:34:28.771Z,64.42
2022-08-20T20:37:12.675Z,64.89
2022-08-20T20:39:45.303Z,64.99
2022-08-20T20:42:26.086Z,65.13
2022-08-20T20:44:54.735Z,65.29
2022-08-20T20:47:27.315Z,65.28
2022-08-20T20:49:59.750Z,65.76
2022-08-20T20:52:37.422Z,65.92
2022-08-20T20:55:14.517Z,65.98
2022-08-20T20:57:42.902Z,65.95
2022-08-20T21:00:23.197Z,66.19
2022-08-20T21:02:51.481Z,66.41
2022-08-20T21:05:23.397Z,66.51
2022-08-20T21:08:01.499Z,66.68
2022-08-20T21:10:33.164Z,66.74
2022-08-20T21:13:03.590Z,66.93
2022-08-20T21:15:33.153Z,67.02
2022-08-20T21:18:04.612Z,67.29
2022-08-20T21:20:33.451Z,67.09
2022-08-20T21:23:01.761Z,67.19
2022-08-20T21:25:32.769Z,67.31
2022-08-20T21:28:01.290Z,67.25
2022-08-20T21:30:30.118Z,67.31
2022-08-20T21:32:58.647Z,67.43
2022-08-20T21:35:27.707Z,67.59
2022-08-20T21:37:55.873Z,67.79
2022-08-20T21:40:24.218Z,67.91
2022-08-20T21:42:57.489Z,68.04
2022-08-20T21:45:28.516Z,68.23
2022-08-20T21:47:58.615Z,68.38
2022-08-20T21:50:27.869Z,68.56
2022-08-20T21:52:59.837Z,68.84
2022-08-20T21:55:37.506Z,68.85
2022-08-20T21:58:08.747Z,68.78
2022-08-20T22:00:52.563Z,69.07
2022-08-20T22:03:22.192Z,69.05
2022-08-20T22:05:51.257Z,69.41
2022-08-20T22:08:20.053Z,69.41
2022-08-20T22:10:50.161Z,69.87
2022-08-20T22:13:18.369Z,70.04
2022-08-20T22:15:46.740Z,70.29
2022-08-20T22:18:16.768Z,70.60
2022-08-20T22:20:45.261Z,71.06
2022-08-20T22:23:13.570Z,71.19
2022-08-20T22:25:42.021Z,71.72
2022-08-20T22:28:10.259Z,71.97
2022-08-20T22:30:42.212Z,72.37
2022-08-20T22:33:17.086Z,72.72
2022-08-20T22:35:48.781Z,73.21
2022-08-20T22:38:17.980Z,73.28
2022-08-20T22:40:46.685Z,73.62
2022-08-20T22:43:16.168Z,73.74
2022-08-20T22:45:47.447Z,73.91
2022-08-20T22:48:19.108Z,74.07
2022-08-20T22:50:48.935Z,74.29
2022-08-20T22:53:19.531Z,74.76
2022-08-20T22:55:49.143Z,74.89
2022-08-20T22:58:18.547Z,75.17
2022-08-20T23:01:01.359Z,75.55
2022-08-20T23:03:39.504Z,75.65
2022-08-20T23:06:09.712Z,75.89
2022-08-20T23:08:38.779Z,76.13
2022-08-20T23:11:07.080Z,76.06
2022-08-20T23:13:35.203Z,76.32
2022-08-20T23:16:04.971Z,76.28
2022-08-20T23:18:33.469Z,76.32
2022-08-20T23:21:01.652Z,76.35
2022-08-20T23:23:30.552Z,75.82
2022-08-20T23:25:59.099Z,75.82
2022-08-20T23:28:27.459Z,75.52
2022-08-20T23:30:55.715Z,75.02
2022-08-20T23:33:24.028Z,74.62
2022-08-20T23:35:52.312Z,74.81
2022-08-20T23:38:21.309Z,74.68
2022-08-20T23:40:49.515Z,74.80
2022-08-20T23:43:18.851Z,74.68
2022-08-20T23:45:47.127Z,74.52
2022-08-20T23:48:15.352Z,74.73
2022-08-20T23:50:43.895Z,74.75
2022-08-20T23:53:12.116Z,74.72
2022-08-20T23:55:40.525Z,74.81
2022-08-20T23:58:08.726Z,74.94
